Time;durP1;ratioP1;P1;durP2;ratioP2;P2;SDS_P1;SDS_P2;PMS_P1;PMS_P2;Temp;Humidity;BMP_temperature;BMP_pressure;BME280_temperature;BME280_humidity;BME280_pressure;Samples;Min_cycle;Max_cycle;Signal;HPM_P1;HPM_P2
2022/02/05 00:03:58;;;;;;;1.67;1.57;;;10.90;40.20;;;;;;10376233;28;20594;-72
2022/02/05 00:09:10;;;;;;;1.60;1.50;;;10.90;40.50;;;;;;10371187;28;20612;-71
2022/02/05 00:41:25;;;;;;;0.90;0.80;;;10.00;40.60;;;;;;10370682;28;20221;-72
2022/02/05 00:46:33;;;;;;;0.83;0.77;;;9.80;41.60;;;;;;10374761;28;20232;-72
2022/02/05 00:51:42;;;;;;;0.87;0.87;;;9.60;41.60;;;;;;10375863;28;20227;-72
2022/02/05 00:57:07;;;;;;;0.70;0.70;;;9.50;41.60;;;;;;10372155;28;20720;-72
2022/02/05 01:02:10;;;;;;;0.80;0.80;;;9.30;41.30;;;;;;10381126;28;20241;-73
2022/02/05 01:07:14;;;;;;;0.80;0.80;;;9.20;41.20;;;;;;10382037;28;20237;-73
2022/02/05 01:12:18;;;;;;;0.80;0.80;;;9.10;41.20;;;;;;10379241;28;20233;-73
2022/02/05 01:17:28;;;;;;;0.80;0.80;;;8.90;41.00;;;;;;10384273;28;20233;-73
2022/02/05 01:22:35;;;;;;;1.10;1.10;;;8.90;42.00;;;;;;10380191;28;20241;-73
2022/02/05 01:27:44;;;;;;;1.10;1.00;;;8.80;41.10;;;;;;10381491;28;20218;-73
2022/02/05 01:32:56;;;;;;;1.30;1.20;;;8.70;41.00;;;;;;10383036;28;20238;-73
2022/02/05 01:54:29;;;;;;;1.00;1.00;;;8.60;40.90;;;;;;10375909;28;20230;-73
2022/02/05 01:59:47;;;;;;;1.20;1.20;;;8.50;41.10;;;;;;10380384;28;20230;-73
2022/02/05 02:04:55;;;;;;;1.00;1.00;;;8.40;40.90;;;;;;10378489;28;20229;-73
2022/02/05 02:10:15;;;;;;;1.03;1.00;;;8.40;40.90;;;;;;10375374;28;20228;-73
2022/02/05 02:15:24;;;;;;;1.10;1.10;;;8.40;40.70;;;;;;10379036;28;20229;-73
2022/02/05 02:20:45;;;;;;;1.23;1.20;;;8.30;40.70;;;;;;10376264;28;20238;-73
2022/02/05 02:25:59;;;;;;;1.10;1.00;;;8.30;40.60;;;;;;10381667;28;20650;-73
2022/02/05 02:31:07;;;;;;;1.53;1.10;;;8.20;40.10;;;;;;10380113;28;20230;-73
2022/02/05 02:36:18;;;;;;;1.10;1.00;;;8.10;39.30;;;;;;10378067;28;20233;-73
2022/02/05 02:41:26;;;;;;;1.10;1.00;;;7.90;39.10;;;;;;10377812;28;20241;-73
2022/02/05 02:46:30;;;;;;;1.83;0.97;;;7.70;38.50;;;;;;10376403;28;20226;-71
2022/02/05 02:57:08;;;;;;;1.23;1.10;;;7.30;38.70;;;;;;10378427;28;20236;-71
2022/02/05 03:02:14;;;;;;;0.90;0.90;;;7.10;38.50;;;;;;10377316;28;20225;-71
2022/02/05 03:07:17;;;;;;;0.83;0.83;;;7.00;39.20;;;;;;10373700;28;20225;-71
2022/02/05 03:12:22;;;;;;;0.90;0.90;;;7.00;39.10;;;;;;10375980;28;20234;-71
2022/02/05 03:17:32;;;;;;;1.97;1.00;;;7.00;39.10;;;;;;10377718;28;20505;-72
2022/02/05 03:22:35;;;;;;;1.37;1.27;;;7.00;39.10;;;;;;10378119;28;20232;-71
2022/02/05 03:27:39;;;;;;;1.33;1.23;;;7.00;39.20;;;;;;10376620;28;20230;-71
2022/02/05 03:32:42;;;;;;;1.23;1.13;;;7.00;39.00;;;;;;10376219;28;20243;-71
2022/02/05 03:37:45;;;;;;;1.20;1.07;;;7.00;39.00;;;;;;10375832;28;20233;-71
2022/02/05 03:42:50;;;;;;;2.10;1.10;;;7.00;38.70;;;;;;10376391;28;20236;-71
2022/02/05 03:47:53;;;;;;;2.03;1.30;;;6.90;38.60;;;;;;10378438;28;20227;-71
2022/02/05 03:52:56;;;;;;;1.17;1.00;;;6.90;38.80;;;;;;10377281;28;20234;-71
2022/02/05 03:58:01;;;;;;;1.07;1.00;;;6.90;38.70;;;;;;10377897;28;20234;-71
2022/02/05 04:03:04;;;;;;;1.20;1.00;;;6.90;38.60;;;;;;10379084;28;20571;-71
2022/02/05 04:08:10;;;;;;;1.20;1.10;;;6.80;38.60;;;;;;10376127;28;20229;-71
2022/02/05 04:18:36;;;;;;;1.30;1.03;;;6.80;38.30;;;;;;10379281;28;20245;-71
2022/02/05 04:23:40;;;;;;;1.13;1.00;;;6.80;38.50;;;;;;10382308;28;20713;-71
2022/02/05 04:28:44;;;;;;;1.40;0.97;;;6.70;38.60;;;;;;10371581;28;20234;-72
2022/02/05 04:33:47;;;;;;;2.10;1.10;;;6.70;38.60;;;;;;10378220;28;20748;-71
2022/02/05 04:38:52;;;;;;;1.83;1.00;;;6.70;38.60;;;;;;10383058;28;20233;-71
2022/02/05 04:44:12;;;;;;;3.13;1.27;;;6.60;38.50;;;;;;10381854;28;20770;-71
2022/02/05 04:49:34;;;;;;;1.80;1.20;;;6.60;38.40;;;;;;10381035;28;20232;-71
2022/02/05 04:54:59;;;;;;;2.33;1.10;;;6.60;38.60;;;;;;10383712;28;20578;-72
2022/02/05 05:05:46;;;;;;;1.70;1.10;;;6.50;38.60;;;;;;10374589;28;20230;-71
2022/02/05 05:11:19;;;;;;;1.33;1.10;;;6.40;38.90;;;;;;10381991;28;20710;-71
2022/02/05 05:21:41;;;;;;;1.93;1.40;;;6.20;38.80;;;;;;10381474;28;20238;-71
2022/02/05 05:26:45;;;;;;;2.57;1.30;;;6.20;39.10;;;;;;10382925;28;20219;-70
2022/02/05 05:31:49;;;;;;;1.30;1.20;;;6.10;39.00;;;;;;10381472;28;20242;-70
2022/02/05 05:36:53;;;;;;;2.37;1.20;;;6.00;39.10;;;;;;10380466;28;20218;-70
2022/02/05 05:41:56;;;;;;;1.47;1.30;;;5.90;39.30;;;;;;10381477;28;20246;-70
2022/02/05 05:52:21;;;;;;;1.80;1.40;;;5.90;39.40;;;;;;10382600;28;20234;-70
2022/02/05 05:57:25;;;;;;;1.83;1.30;;;5.90;39.50;;;;;;10384005;28;20226;-69
2022/02/05 06:02:29;;;;;;;1.60;1.20;;;5.80;39.50;;;;;;10380953;28;20226;-70
2022/02/05 06:07:33;;;;;;;1.40;1.20;;;5.80;39.50;;;;;;10375259;28;20729;-69
2022/02/05 06:12:36;;;;;;;1.40;1.30;;;5.80;39.80;;;;;;10378046;28;20225;-70
2022/02/05 06:17:40;;;;;;;2.13;1.30;;;5.80;39.70;;;;;;10377216;28;20233;-69
2022/02/05 06:22:44;;;;;;;1.50;1.40;;;5.80;39.70;;;;;;10377749;28;20229;-69
2022/02/05 06:27:47;;;;;;;1.67;1.50;;;5.80;39.80;;;;;;10374479;28;20252;-70
2022/02/05 06:32:52;;;;;;;1.80;1.57;;;5.80;39.80;;;;;;10378921;28;20317;-69
2022/02/05 06:37:55;;;;;;;1.90;1.60;;;5.70;40.00;;;;;;10380710;28;20578;-70
2022/02/05 06:42:58;;;;;;;1.50;1.40;;;5.60;40.10;;;;;;10379668;28;20225;-70
2022/02/05 06:48:03;;;;;;;2.07;1.70;;;5.60;40.10;;;;;;10376536;28;20234;-70
2022/02/05 06:53:06;;;;;;;1.80;1.67;;;5.60;40.10;;;;;;10368218;28;20233;-70
2022/02/05 06:58:09;;;;;;;2.47;1.90;;;5.60;40.20;;;;;;10373293;28;20222;-70
2022/02/05 07:03:17;;;;;;;1.70;1.60;;;5.50;40.30;;;;;;10377590;28;20230;-70
2022/02/05 07:08:20;;;;;;;2.00;1.90;;;5.50;40.40;;;;;;10373355;28;20231;-70
2022/02/05 07:13:23;;;;;;;2.80;2.50;;;5.40;40.50;;;;;;10378978;28;20814;-70
2022/02/05 07:18:35;;;;;;;4.47;2.90;;;5.40;40.60;;;;;;10376686;28;20254;-70
2022/02/05 07:23:51;;;;;;;2.47;2.17;;;5.40;40.70;;;;;;10373664;28;20233;-70
2022/02/05 07:34:18;;;;;;;2.60;2.40;;;5.40;40.80;;;;;;10382413;28;20315;-73
2022/02/05 07:39:21;;;;;;;2.83;2.10;;;5.50;40.80;;;;;;10371812;28;20234;-72
2022/02/05 07:44:24;;;;;;;3.23;2.10;;;5.50;40.80;;;;;;10375837;28;20230;-72
2022/02/05 07:49:35;;;;;;;2.20;2.00;;;5.60;40.80;;;;;;10372402;28;20280;-72
2022/02/05 07:54:39;;;;;;;2.77;1.80;;;5.70;40.70;;;;;;10372187;28;20642;-71
2022/02/05 07:59:42;;;;;;;2.10;1.90;;;5.70;40.70;;;;;;10373372;28;20229;-70
2022/02/05 08:04:47;;;;;;;3.13;2.40;;;5.80;40.80;;;;;;10373508;28;20233;-71
2022/02/05 08:09:56;;;;;;;2.40;2.20;;;5.90;40.90;;;;;;10373344;28;20226;-71
2022/02/05 08:15:00;;;;;;;3.97;2.57;;;6.00;41.00;;;;;;10378334;28;20385;-70
2022/02/05 08:20:06;;;;;;;7.20;6.10;;;6.20;40.60;;;;;;10374100;28;20230;-70
2022/02/05 08:25:10;;;;;;;7.30;4.33;;;6.30;40.30;;;;;;10341692;28;20691;-70
2022/02/05 08:30:14;;;;;;;5.93;4.23;;;6.30;40.30;;;;;;10341675;28;20234;-71
2022/02/05 08:35:20;;;;;;;6.63;5.70;;;6.30;40.40;;;;;;10333388;28;20226;-71
2022/02/05 08:40:23;;;;;;;8.37;4.37;;;6.40;40.60;;;;;;10331341;28;20719;-71
2022/02/05 08:45:26;;;;;;;2.90;2.10;;;6.50;40.60;;;;;;10332422;28;20230;-71
2022/02/05 08:50:31;;;;;;;2.63;1.90;;;6.60;40.30;;;;;;10333829;28;20599;-71
2022/02/05 08:55:34;;;;;;;3.40;2.27;;;6.60;40.10;;;;;;10333639;28;20229;-71
2022/02/05 09:00:46;;;;;;;5.40;2.30;;;6.70;40.10;;;;;;10347685;28;20533;-71
2022/02/05 09:05:51;;;;;;;2.63;1.90;;;6.80;40.40;;;;;;10371590;28;20302;-71
2022/02/05 09:11:04;;;;;;;2.10;1.90;;;6.90;40.30;;;;;;10374174;28;20226;-71
2022/02/05 09:16:09;;;;;;;2.67;2.00;;;7.10;40.40;;;;;;10373557;28;20224;-71
2022/02/05 09:21:14;;;;;;;3.80;2.00;;;7.30;40.00;;;;;;10387916;28;20229;-72
2022/02/05 09:26:18;;;;;;;4.07;1.97;;;7.40;39.40;;;;;;10387200;28;20229;-72
2022/02/05 09:31:31;;;;;;;2.33;1.93;;;7.40;39.70;;;;;;10384129;28;20993;-74
2022/02/05 09:36:36;;;;;;;2.90;1.93;;;7.50;39.20;;;;;;10390657;28;20235;-71
2022/02/05 09:41:41;;;;;;;3.93;1.90;;;7.50;39.20;;;;;;10378249;28;20773;-73
2022/02/05 09:46:44;;;;;;;8.87;2.17;;;7.60;39.20;;;;;;10388787;28;20253;-72
2022/02/05 09:52:05;;;;;;;3.90;2.20;;;7.70;40.20;;;;;;10379755;28;20762;-71
2022/02/05 09:57:08;;;;;;;3.93;2.20;;;7.90;39.70;;;;;;10388943;28;20599;-71
2022/02/05 10:02:20;;;;;;;4.17;2.30;;;8.00;39.30;;;;;;10389805;28;20718;-71
2022/02/05 10:07:25;;;;;;;2.43;1.97;;;8.10;39.00;;;;;;10386621;28;20225;-71
2022/02/05 10:12:29;;;;;;;3.13;1.97;;;8.20;39.40;;;;;;10391796;28;20226;-71
2022/02/05 10:17:40;;;;;;;4.43;2.40;;;8.20;39.40;;;;;;10390094;28;20237;-72
2022/02/05 10:22:46;;;;;;;3.53;2.33;;;8.30;38.30;;;;;;10388070;28;20237;-71
2022/02/05 10:27:50;;;;;;;4.23;2.33;;;8.40;39.00;;;;;;10396934;28;20233;-70
2022/02/05 10:33:00;;;;;;;3.63;1.93;;;8.50;38.80;;;;;;10393202;28;20233;-72
2022/02/05 10:38:28;;;;;;;4.27;1.80;;;8.60;38.00;;;;;;10395437;28;20241;-71
2022/02/05 10:43:33;;;;;;;3.37;2.00;;;8.60;37.90;;;;;;10385382;28;20458;-69
2022/02/05 10:48:42;;;;;;;2.80;2.10;;;8.60;37.40;;;;;;10378484;28;20226;-69
2022/02/05 10:53:51;;;;;;;2.93;1.97;;;8.70;37.20;;;;;;10371466;28;20356;-69
2022/02/05 10:59:16;;;;;;;4.17;2.30;;;8.70;37.70;;;;;;10380202;28;20236;-70
2022/02/05 11:09:46;;;;;;;4.27;1.80;;;8.70;37.50;;;;;;10373112;28;20226;-70
2022/02/05 11:15:00;;;;;;;2.57;1.50;;;8.70;37.40;;;;;;10374079;28;20229;-70
2022/02/05 11:20:06;;;;;;;3.50;1.67;;;8.80;37.00;;;;;;10370151;28;20229;-70
2022/02/05 11:25:13;;;;;;;3.63;1.83;;;8.80;36.60;;;;;;10368449;28;20950;-70
2022/02/05 11:30:42;;;;;;;2.87;1.50;;;8.90;37.00;;;;;;10377758;28;20222;-69
2022/02/05 11:36:10;;;;;;;3.70;2.00;;;9.00;36.30;;;;;;10375760;28;20232;-70
2022/02/05 11:41:27;;;;;;;3.53;2.00;;;9.00;37.00;;;;;;10367100;28;20226;-69
2022/02/05 11:46:32;;;;;;;3.20;1.63;;;9.10;36.00;;;;;;10366638;28;20218;-70
2022/02/05 11:51:46;;;;;;;2.67;1.67;;;9.10;37.00;;;;;;10376264;28;20229;-70
2022/02/05 11:56:55;;;;;;;2.70;1.90;;;9.10;35.90;;;;;;10374327;28;20609;-70
2022/02/05 12:02:15;;;;;;;2.67;1.60;;;9.20;35.70;;;;;;10373458;28;20671;-70
2022/02/05 12:07:19;;;;;;;4.13;1.87;;;9.20;34.30;;;;;;10367408;28;20602;-70
2022/02/05 12:12:47;;;;;;;4.87;3.30;;;9.30;36.30;;;;;;10372293;28;20225;-70
2022/02/05 12:18:22;;;;;;;3.83;1.80;;;9.30;36.30;;;;;;10376156;28;20225;-70
2022/02/05 12:23:31;;;;;;;1.80;1.57;;;9.40;34.80;;;;;;10370372;28;20659;-70
2022/02/05 12:28:38;;;;;;;2.43;1.53;;;9.30;35.90;;;;;;10372305;28;20230;-70
2022/02/05 12:33:45;;;;;;;4.57;2.30;;;9.30;35.00;;;;;;10372422;28;20230;-69
2022/02/05 12:38:50;;;;;;;2.33;1.73;;;9.30;35.40;;;;;;10371025;28;20769;-70
2022/02/05 12:43:56;;;;;;;2.97;1.60;;;9.30;36.20;;;;;;10374385;28;20575;-70
2022/02/05 12:49:03;;;;;;;2.83;1.77;;;9.30;35.30;;;;;;10368790;28;20228;-70
2022/02/05 12:54:09;;;;;;;2.40;1.87;;;9.40;35.50;;;;;;10374414;28;20233;-70
2022/02/05 12:59:22;;;;;;;3.60;2.27;;;9.40;35.90;;;;;;10381107;28;20221;-70
2022/02/05 13:04:27;;;;;;;3.57;1.60;;;9.40;35.00;;;;;;10374750;28;20801;-71
2022/02/05 13:09:33;;;;;;;4.10;2.60;;;9.40;34.90;;;;;;10378718;28;20536;-71
2022/02/05 13:14:42;;;;;;;5.90;4.10;;;9.40;35.30;;;;;;10375914;28;20232;-70
2022/02/05 13:20:05;;;;;;;3.33;2.57;;;9.40;35.10;;;;;;10377827;28;20233;-71
2022/02/05 13:25:36;;;;;;;4.10;3.00;;;9.40;34.70;;;;;;10380425;28;20287;-70
2022/02/05 13:36:02;;;;;;;6.30;3.20;;;9.60;35.90;;;;;;10359895;28;20246;-70
2022/02/05 13:41:08;;;;;;;5.50;2.40;;;9.60;35.20;;;;;;10383483;28;20226;-70
2022/02/05 13:46:15;;;;;;;4.73;2.17;;;9.60;35.30;;;;;;10374697;28;20217;-70
2022/02/05 13:51:19;;;;;;;4.87;2.30;;;9.60;34.60;;;;;;10379809;28;20594;-69
2022/02/05 13:56:23;;;;;;;4.13;2.33;;;9.60;35.20;;;;;;10372682;28;20666;-70
2022/02/05 14:01:32;;;;;;;1.70;1.60;;;9.60;35.10;;;;;;10382220;28;20234;-70
2022/02/05 14:06:53;;;;;;;3.90;1.87;;;9.60;34.00;;;;;;10378000;28;20229;-69
2022/02/05 14:11:58;;;;;;;3.73;2.17;;;9.60;33.80;;;;;;10377659;28;20245;-70
2022/02/05 14:17:02;;;;;;;4.43;2.00;;;9.60;34.50;;;;;;10367248;28;20248;-70
2022/02/05 14:22:19;;;;;;;3.90;1.80;;;9.60;34.70;;;;;;10371563;28;20229;-69
2022/02/05 14:27:29;;;;;;;3.27;1.50;;;9.50;33.80;;;;;;10370391;28;20225;-70
2022/02/05 14:32:44;;;;;;;2.80;1.70;;;9.60;34.80;;;;;;10369653;28;20245;-69
2022/02/05 14:43:04;;;;;;;3.83;1.70;;;9.70;34.80;;;;;;10352113;28;20228;-69
2022/02/05 14:48:08;;;;;;;3.90;2.00;;;9.70;34.60;;;;;;10364027;28;20234;-70
2022/02/05 14:53:11;;;;;;;3.10;1.80;;;9.70;34.50;;;;;;10365213;28;20438;-71
2022/02/05 14:58:15;;;;;;;4.03;2.00;;;9.80;34.70;;;;;;10364697;28;20718;-71
2022/02/05 15:03:20;;;;;;;2.43;1.83;;;9.80;34.60;;;;;;10372127;28;20591;-71
2022/02/05 15:08:23;;;;;;;3.20;2.10;;;9.90;33.90;;;;;;10379907;28;20249;-71
2022/02/05 15:13:26;;;;;;;3.10;2.10;;;9.90;34.40;;;;;;10382141;28;20230;-75
2022/02/05 15:18:31;;;;;;;3.40;1.83;;;9.80;34.50;;;;;;10382653;28;20226;-73
2022/02/05 15:23:34;;;;;;;3.40;1.97;;;9.80;34.20;;;;;;10372370;28;20695;-74
2022/02/05 15:28:37;;;;;;;3.60;2.37;;;9.70;34.60;;;;;;10372551;28;20226;-74
2022/02/05 15:33:43;;;;;;;5.60;3.33;;;9.70;34.60;;;;;;10373416;28;20229;-74
2022/02/05 15:38:52;;;;;;;4.07;2.67;;;9.80;34.40;;;;;;10374597;28;20718;-74
2022/02/05 15:43:56;;;;;;;4.27;2.23;;;9.70;34.60;;;;;;10372774;28;20718;-74
2022/02/05 15:49:00;;;;;;;2.47;1.77;;;9.70;34.60;;;;;;10372957;28;20317;-74
2022/02/05 15:54:23;;;;;;;4.57;2.90;;;9.60;34.30;;;;;;10375487;28;20225;-74
2022/02/05 15:59:43;;;;;;;3.10;2.30;;;9.50;34.40;;;;;;10377233;28;20655;-74
2022/02/05 16:04:47;;;;;;;4.70;2.80;;;9.50;34.50;;;;;;10376168;28;20222;-74
2022/02/05 16:09:51;;;;;;;5.67;4.87;;;9.40;34.30;;;;;;10377816;28;20225;-72
2022/02/05 16:14:54;;;;;;;3.93;3.00;;;9.40;34.60;;;;;;10377789;28;20225;-71
2022/02/05 16:19:58;;;;;;;4.93;3.27;;;9.40;34.30;;;;;;10377140;28;20316;-71
2022/02/05 16:25:02;;;;;;;5.70;4.60;;;9.30;34.30;;;;;;10371033;28;20632;-71
2022/02/05 16:30:07;;;;;;;13.60;10.73;;;9.30;34.50;;;;;;10380700;28;20238;-70
2022/02/05 16:35:13;;;;;;;25.50;19.90;;;9.20;34.50;;;;;;10384150;28;20237;-70
2022/02/05 16:40:16;;;;;;;16.43;11.90;;;9.10;34.40;;;;;;10381015;28;20234;-70
2022/02/05 16:45:20;;;;;;;15.67;10.33;;;9.10;34.70;;;;;;10384444;28;20224;-70
2022/02/05 16:50:28;;;;;;;13.27;10.63;;;9.10;34.80;;;;;;10378072;28;20816;-70
2022/02/05 16:55:31;;;;;;;13.47;10.43;;;9.00;34.60;;;;;;10379165;28;20226;-70
2022/02/05 17:00:35;;;;;;;12.87;10.60;;;9.10;34.80;;;;;;10382602;28;20230;-69
2022/02/05 17:05:42;;;;;;;11.53;9.70;;;9.00;34.80;;;;;;10383709;28;20226;-70
2022/02/05 17:10:46;;;;;;;34.47;24.87;;;9.00;34.60;;;;;;10381506;28;20757;-69
2022/02/05 17:15:51;;;;;;;47.33;33.93;;;9.00;34.60;;;;;;10381553;28;20234;-70
2022/02/05 17:20:58;;;;;;;29.33;23.63;;;8.90;34.50;;;;;;10380815;28;20727;-70
2022/02/05 17:26:03;;;;;;;25.53;22.60;;;8.80;34.20;;;;;;10380296;28;21002;-70
2022/02/05 17:31:07;;;;;;;17.90;15.30;;;8.60;34.00;;;;;;10377440;28;20226;-73
2022/02/05 17:36:16;;;;;;;13.47;10.30;;;8.40;34.10;;;;;;10382057;28;20234;-73
2022/02/05 17:41:21;;;;;;;8.37;7.00;;;8.20;34.20;;;;;;10381242;28;20252;-73
2022/02/05 17:46:25;;;;;;;8.00;6.90;;;8.00;34.50;;;;;;10380954;28;20218;-74
2022/02/05 17:51:30;;;;;;;10.83;7.93;;;7.90;34.60;;;;;;10376835;28;20237;-73
2022/02/05 17:56:40;;;;;;;12.87;10.13;;;7.80;34.50;;;;;;10375565;28;20226;-73
2022/02/05 18:01:46;;;;;;;8.63;7.73;;;7.70;34.60;;;;;;10376357;28;20252;-73
2022/02/05 18:06:58;;;;;;;9.30;8.00;;;7.50;34.50;;;;;;10370812;28;20223;-73
2022/02/05 18:12:07;;;;;;;12.63;9.27;;;7.40;34.60;;;;;;10375505;28;20356;-71
2022/02/05 18:17:10;;;;;;;8.03;7.03;;;7.30;34.80;;;;;;10377385;28;20240;-71
2022/02/05 18:22:15;;;;;;;6.47;5.80;;;7.20;34.80;;;;;;10377171;28;20225;-71
2022/02/05 18:27:18;;;;;;;6.70;6.10;;;7.20;35.10;;;;;;10378995;28;20229;-71
2022/02/05 18:32:22;;;;;;;10.77;8.53;;;7.20;35.30;;;;;;10376330;28;20230;-71
2022/02/05 18:37:26;;;;;;;7.40;6.67;;;7.20;35.20;;;;;;10383795;28;20226;-71
2022/02/05 18:42:32;;;;;;;10.27;9.10;;;7.10;34.90;;;;;;10386166;28;20230;-71
2022/02/05 18:47:35;;;;;;;8.30;7.07;;;7.10;35.70;;;;;;10382748;28;20229;-73
2022/02/05 18:52:41;;;;;;;7.53;6.30;;;7.00;35.10;;;;;;10379142;28;20228;-72
2022/02/05 18:57:47;;;;;;;13.27;11.97;;;6.90;35.00;;;;;;10380922;28;20762;-72
2022/02/05 19:03:05;;;;;;;9.53;8.00;;;6.70;35.20;;;;;;10376173;28;20228;-72
2022/02/05 19:13:48;;;;;;;9.33;7.33;;;6.50;35.40;;;;;;10377683;28;20217;-72
2022/02/05 19:18:51;;;;;;;9.83;8.07;;;6.50;35.50;;;;;;10376184;28;20223;-72
2022/02/05 19:23:56;;;;;;;9.97;8.70;;;6.40;35.50;;;;;;10375307;28;20713;-72
2022/02/05 19:29:00;;;;;;;9.27;8.33;;;6.40;35.50;;;;;;10373178;28;20713;-71
2022/02/05 19:34:03;;;;;;;7.53;5.97;;;6.40;35.50;;;;;;10363059;28;20699;-70
2022/02/05 19:39:12;;;;;;;6.60;5.87;;;6.40;35.50;;;;;;10379787;28;20242;-70
2022/02/05 19:44:20;;;;;;;6.90;5.63;;;6.40;35.60;;;;;;10375928;28;20237;-72
2022/02/05 19:49:24;;;;;;;8.50;6.73;;;6.30;35.60;;;;;;10371922;28;20229;-72
2022/02/05 19:54:28;;;;;;;7.47;6.23;;;6.20;35.70;;;;;;10370117;28;20234;-72
2022/02/05 19:59:31;;;;;;;8.23;5.77;;;6.10;35.70;;;;;;10365760;28;20234;-72
2022/02/05 20:04:41;;;;;;;6.87;6.13;;;6.00;35.70;;;;;;10362592;28;20857;-72
2022/02/05 20:09:45;;;;;;;8.23;6.53;;;6.00;35.90;;;;;;10363554;28;20242;-72
2022/02/05 20:14:48;;;;;;;6.67;4.57;;;5.90;36.00;;;;;;10360221;28;20229;-72
2022/02/05 20:19:51;;;;;;;6.20;4.20;;;5.90;36.10;;;;;;10362044;28;20772;-72
2022/02/05 20:24:56;;;;;;;4.90;3.93;;;5.90;36.30;;;;;;10364600;28;20222;-72
2022/02/05 20:29:59;;;;;;;5.77;5.17;;;6.00;36.50;;;;;;10369977;28;20237;-72
2022/02/05 20:35:03;;;;;;;6.63;5.50;;;6.00;36.40;;;;;;10369361;28;20233;-72
2022/02/05 20:40:10;;;;;;;6.87;4.50;;;6.00;36.20;;;;;;10366105;28;20233;-72
2022/02/05 20:45:13;;;;;;;5.57;5.07;;;6.00;36.20;;;;;;10370327;28;20218;-72
2022/02/05 20:50:19;;;;;;;8.13;5.13;;;5.90;36.20;;;;;;10367467;28;20241;-72
2022/02/05 20:55:23;;;;;;;8.47;6.17;;;5.90;36.30;;;;;;10368575;28;20263;-73
2022/02/05 21:00:27;;;;;;;4.40;3.47;;;5.90;36.50;;;;;;10366221;28;20256;-72
2022/02/05 21:05:31;;;;;;;3.17;2.60;;;6.00;36.60;;;;;;10362391;28;20648;-73
2022/02/05 21:10:35;;;;;;;3.60;2.70;;;6.10;36.70;;;;;;10364514;28;21158;-72
2022/02/05 21:15:38;;;;;;;2.47;2.23;;;6.10;36.40;;;;;;10369579;28;20233;-73
2022/02/05 21:20:42;;;;;;;3.20;2.20;;;6.20;36.50;;;;;;10368449;28;20223;-73
2022/02/05 21:25:50;;;;;;;2.50;2.20;;;6.20;36.50;;;;;;10367223;28;20233;-73
2022/02/05 21:31:03;;;;;;;2.77;2.10;;;6.30;36.30;;;;;;10373884;28;20229;-73
2022/02/05 21:36:09;;;;;;;2.80;2.10;;;6.30;36.40;;;;;;10376133;28;20575;-72
2022/02/05 21:41:14;;;;;;;3.17;1.97;;;6.40;36.30;;;;;;10371244;28;20230;-73
2022/02/05 21:46:18;;;;;;;3.40;2.20;;;6.40;36.30;;;;;;10373146;28;20237;-73
2022/02/05 21:51:29;;;;;;;3.23;2.27;;;6.40;36.30;;;;;;10371374;28;20225;-73
2022/02/05 21:56:40;;;;;;;2.57;2.03;;;6.40;36.40;;;;;;10370756;28;20240;-73
2022/02/05 22:01:44;;;;;;;2.00;1.60;;;6.40;36.30;;;;;;10368747;28;20241;-72
2022/02/05 22:06:48;;;;;;;3.60;1.97;;;6.40;36.40;;;;;;10372883;28;20713;-72
2022/02/05 22:11:53;;;;;;;3.10;2.00;;;6.40;36.40;;;;;;10370816;28;20234;-72
2022/02/05 22:16:56;;;;;;;2.37;1.80;;;6.30;36.20;;;;;;10369579;28;20229;-73
2022/02/05 22:21:59;;;;;;;4.03;2.10;;;6.30;36.40;;;;;;10369295;28;20230;-72
2022/02/05 22:27:05;;;;;;;1.87;1.63;;;6.30;36.40;;;;;;10368946;28;20229;-72
2022/02/05 22:32:08;;;;;;;3.00;1.80;;;6.30;36.30;;;;;;10367430;28;20234;-72
2022/02/05 22:37:11;;;;;;;2.30;2.10;;;6.30;36.30;;;;;;10371006;28;20241;-69
2022/02/05 22:42:16;;;;;;;2.17;1.90;;;6.30;36.40;;;;;;10374745;28;20263;-69
2022/02/05 22:47:19;;;;;;;2.63;2.10;;;6.30;36.40;;;;;;10372944;28;20583;-69
2022/02/05 22:52:22;;;;;;;4.13;1.97;;;6.40;36.50;;;;;;10372008;28;20242;-69
2022/02/05 22:57:27;;;;;;;3.13;1.67;;;6.40;36.50;;;;;;10368757;28;20232;-69
2022/02/05 23:02:30;;;;;;;3.20;1.90;;;6.40;36.50;;;;;;10370061;28;20242;-69
2022/02/05 23:07:33;;;;;;;2.47;1.77;;;6.50;36.60;;;;;;10364193;28;20229;-69
2022/02/05 23:12:56;;;;;;;3.57;1.90;;;6.50;36.50;;;;;;10368527;28;20228;-68
2022/02/05 23:44:46;;;;;;;2.50;1.77;;;6.50;36.40;;;;;;10367450;28;20233;-69
2022/02/05 23:49:49;;;;;;;2.73;1.67;;;6.50;36.20;;;;;;10368509;28;20698;-70
2022/02/05 23:54:52;;;;;;;3.27;1.53;;;6.50;36.20;;;;;;10367860;28;20226;-68
2022/02/05 23:59:59;;;;;;;2.40;1.50;;;6.50;36.20;;;;;;10363821;28;20229;-69
